SHT9A EGPH-EGLL
Flight info
| Callsign | SHT9A |
|---|---|
| Flight time | 1h 0m |
| Altitude | 33000 |
| Route | DCT GOSAM DCT FENIK L612 ELBUS UL612 LAKEY DCT NUGRA NUGRA2H |
| Aircraft | A320/M-SDE3FGIJ1KRWXY/SB1 |
Departure
| Time | 2026-04-26 09:43 |
|---|---|
| Airport | Edinburgh Airport (EGPH) |
Arrival
| Time | 2026-04-26 10:43 |
|---|---|
| Airport | London Heathrow Airport (EGLL) |
| Time | Latitude | Longitude | Altitude | Speed | Heading |
|---|---|---|---|---|---|
| 2026-04-26 08:55 | 55.94881 | -3.36548 | 113 ft | 0 kts | 148° |
| 2026-04-26 09:31 | 55.94887 | -3.36555 | 112 ft | 4 kts | 147° |
| 2026-04-26 09:31 | 55.94909 | -3.36584 | 112 ft | 4 kts | 135° |
| 2026-04-26 09:32 | 55.94925 | -3.36620 | 112 ft | 4 kts | 109° |
| 2026-04-26 09:32 | 55.94926 | -3.36656 | 112 ft | 1 kts | 59° |
| 2026-04-26 09:32 | 55.94924 | -3.36663 | 113 ft | 0 kts | 59° |
| 2026-04-26 09:37 | 55.94925 | -3.36658 | 113 ft | 3 kts | 59° |
| 2026-04-26 09:37 | 55.94950 | -3.36587 | 112 ft | 10 kts | 59° |
| 2026-04-26 09:37 | 55.94992 | -3.36462 | 112 ft | 13 kts | 59° |
| 2026-04-26 09:37 | 55.95075 | -3.36397 | 115 ft | 16 kts | 8° |
| 2026-04-26 09:38 | 55.95147 | -3.36242 | 113 ft | 18 kts | 59° |
| 2026-04-26 09:38 | 55.95219 | -3.36032 | 115 ft | 21 kts | 59° |
| 2026-04-26 09:38 | 55.95296 | -3.35804 | 116 ft | 15 kts | 59° |
| 2026-04-26 09:38 | 55.95348 | -3.35651 | 113 ft | 13 kts | 59° |
| 2026-04-26 09:39 | 55.95382 | -3.35548 | 113 ft | 6 kts | 59° |
| 2026-04-26 09:39 | 55.95402 | -3.35490 | 114 ft | 0 kts | 58° |
| 2026-04-26 09:39 | 55.95403 | -3.35488 | 114 ft | 1 kts | 58° |
| 2026-04-26 09:39 | 55.95412 | -3.35460 | 112 ft | 4 kts | 58° |
| 2026-04-26 09:40 | 55.95436 | -3.35406 | 114 ft | 7 kts | 36° |
| 2026-04-26 09:40 | 55.95489 | -3.35428 | 115 ft | 10 kts | 327° |
| 2026-04-26 09:40 | 55.95496 | -3.35437 | 112 ft | 1 kts | 328° |
| 2026-04-26 09:40 | 55.95497 | -3.35437 | 112 ft | 0 kts | 328° |
| 2026-04-26 09:41 | 55.95513 | -3.35455 | 114 ft | 8 kts | 328° |
| 2026-04-26 09:42 | 55.95569 | -3.35537 | 113 ft | 13 kts | 291° |
| 2026-04-26 09:42 | 55.95556 | -3.35608 | 112 ft | 2 kts | 240° |
| 2026-04-26 09:42 | 55.95463 | -3.35885 | 111 ft | 70 kts | 239° |
| 2026-04-26 09:42 | 55.95054 | -3.37088 | 113 ft | 150 kts | 239° |
| 2026-04-26 09:43 | 55.94458 | -3.38822 | 732 ft | 169 kts | 238° |
| 2026-04-26 09:43 | 55.93831 | -3.40622 | 1684 ft | 168 kts | 237° |
| 2026-04-26 09:43 | 55.93220 | -3.42384 | 2360 ft | 171 kts | 237° |
| 2026-04-26 09:43 | 55.92553 | -3.44313 | 2683 ft | 193 kts | 238° |
| 2026-04-26 09:44 | 55.91810 | -3.46469 | 2994 ft | 216 kts | 238° |
| 2026-04-26 09:44 | 55.90981 | -3.48884 | 3428 ft | 240 kts | 238° |
| 2026-04-26 09:44 | 55.90357 | -3.51724 | 4187 ft | 252 kts | 258° |
| 2026-04-26 09:44 | 55.90053 | -3.54829 | 5168 ft | 256 kts | 259° |
| 2026-04-26 09:45 | 55.89743 | -3.57978 | 6161 ft | 259 kts | 259° |
| 2026-04-26 09:45 | 55.89428 | -3.61153 | 7143 ft | 261 kts | 259° |
| 2026-04-26 09:45 | 55.89108 | -3.64360 | 8064 ft | 264 kts | 258° |
| 2026-04-26 09:45 | 55.88782 | -3.67602 | 8986 ft | 267 kts | 258° |
| 2026-04-26 09:46 | 55.88454 | -3.70840 | 9884 ft | 271 kts | 257° |
| 2026-04-26 09:46 | 55.88112 | -3.74195 | 10574 ft | 282 kts | 257° |
| 2026-04-26 09:46 | 55.87746 | -3.77771 | 10842 ft | 305 kts | 258° |
| 2026-04-26 09:46 | 55.87357 | -3.81606 | 11213 ft | 322 kts | 258° |
| 2026-04-26 09:47 | 55.86961 | -3.85587 | 11876 ft | 328 kts | 258° |
| 2026-04-26 09:47 | 55.86563 | -3.89609 | 12592 ft | 332 kts | 258° |
| 2026-04-26 09:47 | 55.86297 | -3.92306 | 13086 ft | 335 kts | 258° |
| 2026-04-26 09:47 | 55.85756 | -3.97763 | 14075 ft | 340 kts | 258° |
| 2026-04-26 09:48 | 55.85339 | -4.01932 | 14730 ft | 344 kts | 258° |
| 2026-04-26 09:48 | 55.84917 | -4.06135 | 15395 ft | 346 kts | 258° |
| 2026-04-26 09:48 | 55.84381 | -4.10317 | 16057 ft | 347 kts | 249° |
| 2026-04-26 09:48 | 55.83211 | -4.14066 | 16686 ft | 350 kts | 231° |
| 2026-04-26 09:49 | 55.82050 | -4.16144 | 17109 ft | 352 kts | 219° |
| 2026-04-26 09:49 | 55.80056 | -4.18625 | 17759 ft | 355 kts | 216° |
| 2026-04-26 09:49 | 55.78005 | -4.21110 | 18397 ft | 358 kts | 216° |
| 2026-04-26 09:49 | 55.75915 | -4.23553 | 18993 ft | 362 kts | 211° |
| 2026-04-26 09:50 | 55.73570 | -4.25266 | 19557 ft | 369 kts | 198° |
| 2026-04-26 09:50 | 55.71000 | -4.25921 | 20096 ft | 378 kts | 184° |
| 2026-04-26 09:50 | 55.68353 | -4.25390 | 20628 ft | 389 kts | 169° |
| 2026-04-26 09:50 | 55.65788 | -4.23681 | 21145 ft | 397 kts | 158° |
| 2026-04-26 09:51 | 55.63306 | -4.21474 | 21653 ft | 402 kts | 155° |
| 2026-04-26 09:51 | 55.60843 | -4.19068 | 22147 ft | 406 kts | 154° |
| 2026-04-26 09:51 | 55.58385 | -4.16554 | 22641 ft | 410 kts | 153° |
| 2026-04-26 09:51 | 55.55912 | -4.14003 | 23148 ft | 414 kts | 153° |
| 2026-04-26 09:52 | 55.54252 | -4.12309 | 23481 ft | 416 kts | 154° |
| 2026-04-26 09:52 | 55.48298 | -4.06427 | 24489 ft | 423 kts | 156° |
| 2026-04-26 09:52 | 55.45688 | -4.04017 | 24878 ft | 425 kts | 157° |
| 2026-04-26 09:53 | 55.43044 | -4.01660 | 25309 ft | 426 kts | 157° |
| 2026-04-26 09:53 | 55.40386 | -3.99328 | 25719 ft | 429 kts | 158° |
| 2026-04-26 09:53 | 55.37709 | -3.96987 | 26134 ft | 431 kts | 158° |
| 2026-04-26 09:53 | 55.35010 | -3.94611 | 26525 ft | 434 kts | 158° |
| 2026-04-26 09:54 | 55.32307 | -3.92212 | 26912 ft | 437 kts | 158° |
| 2026-04-26 09:54 | 55.29589 | -3.89785 | 27303 ft | 439 kts | 158° |
| 2026-04-26 09:54 | 55.26882 | -3.87362 | 28060 ft | 430 kts | 158° |
| 2026-04-26 09:54 | 55.24272 | -3.85013 | 29230 ft | 416 kts | 158° |
| 2026-04-26 09:55 | 55.21700 | -3.82708 | 29813 ft | 415 kts | 159° |
| 2026-04-26 09:55 | 55.19121 | -3.80417 | 30241 ft | 416 kts | 159° |
| 2026-04-26 09:55 | 55.16535 | -3.78133 | 30670 ft | 416 kts | 159° |
| 2026-04-26 09:55 | 55.13946 | -3.75849 | 31171 ft | 415 kts | 159° |
| 2026-04-26 09:56 | 55.11406 | -3.73605 | 31674 ft | 413 kts | 159° |
| 2026-04-26 09:56 | 55.08848 | -3.71344 | 32193 ft | 412 kts | 159° |
| 2026-04-26 09:56 | 55.06289 | -3.69086 | 32624 ft | 413 kts | 159° |
| 2026-04-26 09:56 | 55.03699 | -3.66806 | 32754 ft | 421 kts | 159° |
| 2026-04-26 09:57 | 55.01063 | -3.64494 | 32888 ft | 428 kts | 159° |
| 2026-04-26 09:57 | 54.98368 | -3.62145 | 33028 ft | 436 kts | 159° |
| 2026-04-26 09:57 | 54.95636 | -3.59763 | 33199 ft | 443 kts | 159° |
| 2026-04-26 09:57 | 54.92860 | -3.57338 | 33283 ft | 449 kts | 158° |
| 2026-04-26 09:58 | 54.87264 | -3.52429 | 33298 ft | 451 kts | 158° |
| 2026-04-26 09:58 | 54.81658 | -3.47522 | 33299 ft | 451 kts | 158° |
| 2026-04-26 09:59 | 54.76049 | -3.42654 | 33302 ft | 451 kts | 158° |
| 2026-04-26 09:59 | 54.70428 | -3.37797 | 33282 ft | 451 kts | 158° |
| 2026-04-26 10:00 | 54.64813 | -3.32956 | 33283 ft | 451 kts | 158° |
| 2026-04-26 10:00 | 54.59229 | -3.28153 | 33287 ft | 451 kts | 159° |
| 2026-04-26 10:01 | 54.53603 | -3.23342 | 33295 ft | 451 kts | 159° |
| 2026-04-26 10:01 | 54.47975 | -3.18535 | 33289 ft | 452 kts | 159° |
| 2026-04-26 10:02 | 54.42301 | -3.13710 | 33275 ft | 452 kts | 158° |
| 2026-04-26 10:02 | 54.36685 | -3.08936 | 33279 ft | 454 kts | 158° |
| 2026-04-26 10:03 | 54.31015 | -3.04127 | 33293 ft | 454 kts | 158° |
| 2026-04-26 10:03 | 54.25340 | -2.99333 | 33296 ft | 455 kts | 159° |
| 2026-04-26 10:04 | 54.19471 | -2.95568 | 33274 ft | 450 kts | 166° |
| 2026-04-26 10:04 | 54.13534 | -2.92169 | 33289 ft | 450 kts | 166° |
| 2026-04-26 10:05 | 54.07597 | -2.88761 | 33294 ft | 451 kts | 166° |
| 2026-04-26 10:05 | 54.01644 | -2.85352 | 33297 ft | 451 kts | 166° |
| 2026-04-26 10:06 | 53.95692 | -2.81964 | 33284 ft | 451 kts | 166° |
| 2026-04-26 10:06 | 53.89739 | -2.78580 | 33294 ft | 451 kts | 166° |
| 2026-04-26 10:07 | 53.83778 | -2.75198 | 33296 ft | 451 kts | 166° |
| 2026-04-26 10:07 | 53.77823 | -2.71825 | 33301 ft | 451 kts | 166° |
| 2026-04-26 10:08 | 53.71864 | -2.68479 | 33314 ft | 451 kts | 166° |
| 2026-04-26 10:08 | 53.65898 | -2.65135 | 33293 ft | 452 kts | 166° |
| 2026-04-26 10:09 | 53.59975 | -2.61806 | 33301 ft | 452 kts | 166° |
| 2026-04-26 10:09 | 53.54001 | -2.58461 | 33308 ft | 452 kts | 166° |
| 2026-04-26 10:10 | 53.48026 | -2.55138 | 33310 ft | 452 kts | 166° |
| 2026-04-26 10:10 | 53.42046 | -2.51829 | 33316 ft | 452 kts | 166° |
| 2026-04-26 10:11 | 53.36064 | -2.48519 | 33326 ft | 453 kts | 166° |
| 2026-04-26 10:11 | 53.30079 | -2.45215 | 33331 ft | 453 kts | 166° |
| 2026-04-26 10:12 | 53.24097 | -2.41925 | 33328 ft | 453 kts | 166° |
| 2026-04-26 10:12 | 53.18104 | -2.38636 | 33319 ft | 453 kts | 166° |
| 2026-04-26 10:13 | 53.12122 | -2.35373 | 33327 ft | 452 kts | 166° |
| 2026-04-26 10:13 | 53.06141 | -2.32118 | 33329 ft | 452 kts | 166° |
| 2026-04-26 10:14 | 53.00397 | -2.27713 | 33321 ft | 460 kts | 151° |
| 2026-04-26 10:14 | 52.95032 | -2.22041 | 33331 ft | 460 kts | 151° |
| 2026-04-26 10:15 | 52.89625 | -2.16378 | 33336 ft | 460 kts | 152° |
| 2026-04-26 10:15 | 52.84214 | -2.10739 | 33311 ft | 460 kts | 152° |
| 2026-04-26 10:16 | 52.81509 | -2.07923 | 33063 ft | 460 kts | 152° |
| 2026-04-26 10:16 | 52.78802 | -2.05104 | 32790 ft | 460 kts | 152° |
| 2026-04-26 10:16 | 52.76055 | -2.02247 | 32523 ft | 460 kts | 152° |
| 2026-04-26 10:16 | 52.73378 | -1.99471 | 32104 ft | 461 kts | 152° |
| 2026-04-26 10:17 | 52.70671 | -1.96667 | 31491 ft | 458 kts | 152° |
| 2026-04-26 10:17 | 52.67979 | -1.93880 | 30868 ft | 456 kts | 152° |
| 2026-04-26 10:17 | 52.65297 | -1.91109 | 30223 ft | 454 kts | 152° |
| 2026-04-26 10:17 | 52.62618 | -1.88350 | 29572 ft | 450 kts | 152° |
| 2026-04-26 10:18 | 52.59976 | -1.85629 | 28954 ft | 446 kts | 152° |
| 2026-04-26 10:18 | 52.57357 | -1.82932 | 28335 ft | 443 kts | 152° |
| 2026-04-26 10:18 | 52.54750 | -1.80255 | 27710 ft | 439 kts | 152° |
| 2026-04-26 10:18 | 52.52163 | -1.77607 | 27120 ft | 436 kts | 151° |
| 2026-04-26 10:19 | 52.49599 | -1.74983 | 26513 ft | 433 kts | 151° |
| 2026-04-26 10:19 | 52.47052 | -1.72379 | 25909 ft | 429 kts | 151° |
| 2026-04-26 10:19 | 52.44523 | -1.69805 | 25324 ft | 427 kts | 151° |
| 2026-04-26 10:19 | 52.42005 | -1.67247 | 24746 ft | 424 kts | 151° |
| 2026-04-26 10:20 | 52.39505 | -1.64711 | 24172 ft | 421 kts | 151° |
| 2026-04-26 10:20 | 52.37862 | -1.63044 | 23808 ft | 420 kts | 151° |
| 2026-04-26 10:20 | 52.34591 | -1.59721 | 23048 ft | 414 kts | 150° |
| 2026-04-26 10:20 | 52.32160 | -1.57248 | 22535 ft | 409 kts | 150° |
| 2026-04-26 10:21 | 52.29748 | -1.54803 | 22047 ft | 405 kts | 151° |
| 2026-04-26 10:21 | 52.27368 | -1.52397 | 21549 ft | 400 kts | 151° |
| 2026-04-26 10:21 | 52.25013 | -1.50021 | 21072 ft | 396 kts | 150° |
| 2026-04-26 10:21 | 52.22681 | -1.47671 | 20560 ft | 392 kts | 150° |
| 2026-04-26 10:22 | 52.20500 | -1.45022 | 20107 ft | 391 kts | 141° |
| 2026-04-26 10:22 | 52.18447 | -1.42121 | 19733 ft | 390 kts | 141° |
| 2026-04-26 10:22 | 52.16397 | -1.39247 | 19338 ft | 387 kts | 141° |
| 2026-04-26 10:22 | 52.14354 | -1.36401 | 18945 ft | 384 kts | 142° |
| 2026-04-26 10:23 | 52.12331 | -1.33588 | 18544 ft | 381 kts | 142° |
| 2026-04-26 10:23 | 52.10322 | -1.30795 | 18136 ft | 378 kts | 142° |
| 2026-04-26 10:23 | 52.08328 | -1.28025 | 17747 ft | 376 kts | 142° |
| 2026-04-26 10:23 | 52.06344 | -1.25271 | 17364 ft | 374 kts | 142° |
| 2026-04-26 10:24 | 52.04370 | -1.22536 | 16981 ft | 371 kts | 142° |
| 2026-04-26 10:24 | 52.02413 | -1.19826 | 16585 ft | 368 kts | 142° |
| 2026-04-26 10:24 | 52.00469 | -1.17138 | 16214 ft | 366 kts | 142° |
| 2026-04-26 10:24 | 51.98537 | -1.14477 | 15850 ft | 364 kts | 142° |
| 2026-04-26 10:25 | 51.96609 | -1.11826 | 15489 ft | 361 kts | 142° |
| 2026-04-26 10:25 | 51.94696 | -1.09191 | 14996 ft | 361 kts | 142° |
| 2026-04-26 10:25 | 51.92821 | -1.06603 | 14775 ft | 342 kts | 141° |
| 2026-04-26 10:25 | 51.91078 | -1.04190 | 14655 ft | 318 kts | 142° |
| 2026-04-26 10:26 | 51.89450 | -1.01940 | 14531 ft | 297 kts | 142° |
| 2026-04-26 10:26 | 51.87919 | -0.99831 | 14325 ft | 282 kts | 142° |
| 2026-04-26 10:26 | 51.86436 | -0.97797 | 13895 ft | 277 kts | 142° |
| 2026-04-26 10:26 | 51.85150 | -0.95553 | 13362 ft | 277 kts | 125° |
| 2026-04-26 10:27 | 51.84236 | -0.92814 | 12805 ft | 277 kts | 118° |
| 2026-04-26 10:27 | 51.83387 | -0.90028 | 12305 ft | 275 kts | 118° |
| 2026-04-26 10:27 | 51.82547 | -0.87269 | 11805 ft | 273 kts | 118° |
| 2026-04-26 10:27 | 51.81710 | -0.84527 | 11318 ft | 270 kts | 118° |
| 2026-04-26 10:28 | 51.80881 | -0.81810 | 10842 ft | 268 kts | 117° |
| 2026-04-26 10:28 | 51.80062 | -0.79128 | 10394 ft | 264 kts | 117° |
| 2026-04-26 10:28 | 51.79252 | -0.76481 | 9912 ft | 262 kts | 117° |
| 2026-04-26 10:28 | 51.78448 | -0.73860 | 9433 ft | 259 kts | 117° |
| 2026-04-26 10:29 | 51.77813 | -0.72217 | 9325 ft | 258 kts | 134° |
| 2026-04-26 10:29 | 51.76328 | -0.70562 | 9318 ft | 262 kts | 162° |
| 2026-04-26 10:29 | 51.74585 | -0.70122 | 9324 ft | 250 kts | 179° |
| 2026-04-26 10:29 | 51.72853 | -0.70077 | 9321 ft | 249 kts | 180° |
| 2026-04-26 10:30 | 51.71113 | -0.70085 | 9321 ft | 250 kts | 181° |
| 2026-04-26 10:30 | 51.69376 | -0.70096 | 9321 ft | 249 kts | 181° |
| 2026-04-26 10:30 | 51.67637 | -0.70110 | 9323 ft | 250 kts | 181° |
| 2026-04-26 10:30 | 51.65896 | -0.70135 | 9323 ft | 250 kts | 181° |
| 2026-04-26 10:31 | 51.64150 | -0.70160 | 9326 ft | 250 kts | 181° |
| 2026-04-26 10:31 | 51.62414 | -0.70178 | 9324 ft | 249 kts | 181° |
| 2026-04-26 10:31 | 51.60696 | -0.70194 | 9324 ft | 250 kts | 181° |
| 2026-04-26 10:31 | 51.58958 | -0.70212 | 9324 ft | 249 kts | 181° |
| 2026-04-26 10:32 | 51.57246 | -0.70498 | 9318 ft | 247 kts | 200° |
| 2026-04-26 10:32 | 51.55832 | -0.72014 | 9321 ft | 248 kts | 231° |
| 2026-04-26 10:32 | 51.55092 | -0.74500 | 9309 ft | 248 kts | 260° |
| 2026-04-26 10:32 | 51.54984 | -0.77268 | 8998 ft | 248 kts | 270° |
| 2026-04-26 10:33 | 51.55007 | -0.80036 | 8690 ft | 248 kts | 271° |
| 2026-04-26 10:33 | 51.55044 | -0.82772 | 8400 ft | 247 kts | 271° |
| 2026-04-26 10:33 | 51.55086 | -0.85561 | 8115 ft | 246 kts | 271° |
| 2026-04-26 10:33 | 51.55129 | -0.88276 | 7859 ft | 245 kts | 271° |
| 2026-04-26 10:34 | 51.55171 | -0.90960 | 7712 ft | 237 kts | 271° |
| 2026-04-26 10:34 | 51.55212 | -0.93639 | 7304 ft | 239 kts | 271° |
| 2026-04-26 10:34 | 51.55251 | -0.96277 | 6921 ft | 234 kts | 268° |
| 2026-04-26 10:34 | 51.54860 | -0.98736 | 6529 ft | 227 kts | 236° |
| 2026-04-26 10:35 | 51.53728 | -1.00365 | 6252 ft | 214 kts | 200° |
| 2026-04-26 10:35 | 51.52332 | -1.00835 | 6122 ft | 199 kts | 184° |
| 2026-04-26 10:35 | 51.50994 | -1.00685 | 5839 ft | 191 kts | 155° |
| 2026-04-26 10:35 | 51.49964 | -0.99398 | 5501 ft | 188 kts | 131° |
| 2026-04-26 10:36 | 51.49159 | -0.97750 | 5303 ft | 186 kts | 127° |
| 2026-04-26 10:36 | 51.48399 | -0.96071 | 5071 ft | 185 kts | 126° |
| 2026-04-26 10:36 | 51.47702 | -0.94349 | 4830 ft | 183 kts | 112° |
| 2026-04-26 10:36 | 51.47479 | -0.92353 | 4620 ft | 183 kts | 91° |
| 2026-04-26 10:37 | 51.47497 | -0.90306 | 4347 ft | 182 kts | 90° |
| 2026-04-26 10:37 | 51.47516 | -0.88309 | 4235 ft | 174 kts | 91° |
| 2026-04-26 10:37 | 51.47532 | -0.86433 | 4128 ft | 163 kts | 90° |
| 2026-04-26 10:37 | 51.47545 | -0.84626 | 4061 ft | 161 kts | 91° |
| 2026-04-26 10:38 | 51.47558 | -0.82838 | 3996 ft | 160 kts | 91° |
| 2026-04-26 10:38 | 51.47570 | -0.81056 | 3979 ft | 160 kts | 91° |
| 2026-04-26 10:38 | 51.47582 | -0.79268 | 3845 ft | 161 kts | 90° |
| 2026-04-26 10:38 | 51.47594 | -0.77479 | 3647 ft | 159 kts | 90° |
| 2026-04-26 10:39 | 51.47605 | -0.75731 | 3459 ft | 158 kts | 90° |
| 2026-04-26 10:39 | 51.47616 | -0.73976 | 3240 ft | 158 kts | 90° |
| 2026-04-26 10:39 | 51.47627 | -0.72212 | 3017 ft | 158 kts | 91° |
| 2026-04-26 10:39 | 51.47638 | -0.70437 | 2826 ft | 161 kts | 91° |
| 2026-04-26 10:40 | 51.47648 | -0.68617 | 2587 ft | 165 kts | 91° |
| 2026-04-26 10:40 | 51.47659 | -0.66792 | 2369 ft | 162 kts | 92° |
| 2026-04-26 10:40 | 51.47669 | -0.64978 | 2147 ft | 163 kts | 92° |
| 2026-04-26 10:40 | 51.47679 | -0.63178 | 1925 ft | 160 kts | 92° |
| 2026-04-26 10:41 | 51.47689 | -0.61407 | 1714 ft | 157 kts | 92° |
| 2026-04-26 10:41 | 51.47697 | -0.59660 | 1502 ft | 153 kts | 92° |
| 2026-04-26 10:41 | 51.47706 | -0.58050 | 1285 ft | 137 kts | 91° |
| 2026-04-26 10:41 | 51.47713 | -0.56558 | 1113 ft | 131 kts | 92° |
| 2026-04-26 10:42 | 51.47720 | -0.55110 | 930 ft | 129 kts | 90° |
| 2026-04-26 10:42 | 51.47726 | -0.53683 | 754 ft | 130 kts | 89° |
| 2026-04-26 10:42 | 51.47732 | -0.52231 | 590 ft | 127 kts | 90° |
| 2026-04-26 10:42 | 51.47739 | -0.50789 | 416 ft | 129 kts | 90° |
| 2026-04-26 10:43 | 51.47749 | -0.49343 | 215 ft | 129 kts | 90° |
| 2026-04-26 10:43 | 51.47753 | -0.47923 | 88 ft | 119 kts | 90° |
| 2026-04-26 10:43 | 51.47756 | -0.46844 | 90 ft | 72 kts | 90° |
| 2026-04-26 10:43 | 51.47758 | -0.46311 | 91 ft | 23 kts | 90° |
| 2026-04-26 10:44 | 51.47677 | -0.46114 | 86 ft | 21 kts | 144° |
| 2026-04-26 10:44 | 51.47603 | -0.46060 | 86 ft | 0 kts | 191° |
| 2026-04-26 10:44 | 51.47598 | -0.46061 | 86 ft | 2 kts | 191° |
| 2026-04-26 10:44 | 51.47590 | -0.46075 | 90 ft | 2 kts | 256° |
| 2026-04-26 10:45 | 51.47591 | -0.46082 | 89 ft | 2 kts | 274° |
| 2026-04-26 10:45 | 51.47595 | -0.46170 | 87 ft | 10 kts | 271° |
| 2026-04-26 10:45 | 51.47594 | -0.46298 | 90 ft | 13 kts | 269° |
| 2026-04-26 10:45 | 51.47593 | -0.46456 | 86 ft | 16 kts | 269° |
| 2026-04-26 10:46 | 51.47592 | -0.46646 | 86 ft | 18 kts | 270° |
| 2026-04-26 10:46 | 51.47585 | -0.46865 | 88 ft | 21 kts | 264° |
| 2026-04-26 10:46 | 51.47581 | -0.47121 | 86 ft | 25 kts | 269° |
| 2026-04-26 10:46 | 51.47580 | -0.47414 | 89 ft | 28 kts | 269° |
| 2026-04-26 10:47 | 51.47580 | -0.47712 | 90 ft | 27 kts | 270° |
| 2026-04-26 10:47 | 51.47579 | -0.47967 | 89 ft | 22 kts | 270° |
| 2026-04-26 10:47 | 51.47578 | -0.48227 | 88 ft | 21 kts | 269° |
| 2026-04-26 10:47 | 51.47576 | -0.48469 | 86 ft | 21 kts | 269° |
| 2026-04-26 10:48 | 51.47573 | -0.48719 | 86 ft | 24 kts | 269° |
| 2026-04-26 10:48 | 51.47571 | -0.48892 | 86 ft | 6 kts | 269° |
| 2026-04-26 10:48 | 51.47544 | -0.48948 | 87 ft | 9 kts | 199° |
| 2026-04-26 10:48 | 51.47469 | -0.48953 | 88 ft | 12 kts | 178° |
| 2026-04-26 10:49 | 51.47414 | -0.48953 | 88 ft | 0 kts | 180° |